Hasanuddin International Airport
WAAA : now visible

Airfield :











YOU CAN JOIN US ON...

 
LOGIN :

Register | Disclaimer

   EN    FR    IT 

 









Legend :    VFR   Marginal VFR   IFR   Intensive IFR   Very Intensive IFR
Visi :
Ceiling :
>= 8 km
>= 3000ft
5 to 8 km
1000 to 3000 ft
1500m to 5 km
500 to 1000 ft
800 to 1500m
200 to 500 ft
< 800m
< 200 ft
Symbols :   Thunderstorms  Fog  Heavy snow  Heavy precipitations  Wind > 20 kt






- Airport Elevation : 47 ft
- IATA code : UPG


WAAA - Hasanuddin International

CURRENT METAR :
  • 031930Z 04002KT 8000 FEW019 24/24 Q1008 NOSIG

EXPIRED METARs :
  • 031900Z 10002KT 8000 FEW019 24/24 Q1008 NOSIG
  • 031830Z 11002KT 8000 FEW019 24/24 Q1008 NOSIG
  • 030500Z 25005KT 8000 VCSH FEW018CB SCT019 30/25 Q1007 TEMPO TL0600 3000 TSRA RMK CB IN APCH
  • 031800Z 12003KT 8000 FEW019 24/24 Q1009 NOSIG
  • 031730Z 08003KT 8000 FEW019 25/24 Q1009 NOSIG
  • 031700Z 05002KT 8000 FEW019 25/25 Q1009 NOSIG

TAF TAF WAAA
Valid from the 03 at 18:00 until the 05 at 00:00 UTC


031700Z 0318/0424 11004KT 8000 SCT019
BECMG 0402/0404 29010KT
WAAF FIR / Asia



MET'MAP, your aeronautical weather chart ! - Copyright ORBIFLY December 2007 - Disclaimer

ORBIFLY MET'MAP TEAM :

Programming & Development : Alexandra Zaïnal
Original concept : Baudouin d'Aumeries
Technical & hardware support : Manuel Goepfert
Assistance : Marc-Olivier Méhu




SOURCES & CREDITS :

   NOAA       Earth
Advisory